Wotan — V2CA5 — position and weather

sailwx.info

Track history (hours):
 
Tides and Currents Weather Stations Pressure Air Temp Water Temp Dewpoint Dewpoint Depression Visibility Wind Speed Wind Dir Waves Ship Positions

Wotan

Last reported at 2014-Dec-16 00:07 UTC. Time now 2014-Dec-18 09:34 UTC.
Position N 38°29' W 010°03'.

Length 100 m; draft 5.9 m.

Type: Cargo ship. MMSI: 304195000.

Date/timePositionNaut miles runAvg speedWind from/ knotsBaromVisibWave heightAir tempDewpointWater temp
2014-Dec-16 00:07N 38°29' W 010°03'5 8.6
2014-Dec-15 23:33N 38°34' W 010°05'8 8.3
2014-Dec-15 22:32N 38°42' W 010°08'20 8.3
2014-Dec-15 20:10N 39°01' W 010°07'  
2014-Dec-11 14:21N 51°54' W 006°19'5 6.6
2014-Dec-11 13:33N 51°59' W 006°17'6 6.3
2014-Dec-11 12:33N 52°05' W 006°14'5 5.3
2014-Dec-11 11:33N 52°09' W 006°10'6 5.8
2014-Dec-11 10:33N 52°15' W 006°07'6 5.7
2014-Dec-11 09:33N 52°20' W 006°06'7 6.6
2014-Dec-11 08:33N 52°27' W 006°06'7 6.7
2014-Dec-11 07:31N 52°34' W 006°07'0 0.1
2014-Dec-11 06:28N 52°34' W 006°07'0 0.1
2014-Dec-11 05:31N 52°34' W 006°07'0 0.0
2014-Dec-11 04:31N 52°34' W 006°07'0 0.0
2014-Dec-11 03:31N 52°34' W 006°07'0 0.1
2014-Dec-11 02:28N 52°34' W 006°07'0 0.1
2014-Dec-11 01:31N 52°34' W 006°07'0 0.1
2014-Dec-11 00:07N 52°34' W 006°07'0 0.0
2014-Dec-10 23:31N 52°34' W 006°07'0 0.0
2014-Dec-10 22:25N 52°34' W 006°07'0 0.1
2014-Dec-10 21:31N 52°34' W 006°07'0 0.2
2014-Dec-10 20:22N 52°34' W 006°07'0 0.1
2014-Dec-10 19:31N 52°34' W 006°06'0 0.1
2014-Dec-10 18:28N 52°34' W 006°07'0 0.1
2014-Dec-10 17:22N 52°34' W 006°07'0 0.0
2014-Dec-10 16:22N 52°34' W 006°07'0 0.1
2014-Dec-10 15:31N 52°34' W 006°07'0 0.1
2014-Dec-10 14:22N 52°34' W 006°07'0 0.2
2014-Dec-10 13:31N 52°34' W 006°06'0 0.1
2014-Dec-10 12:31N 52°34' W 006°06'6 6.2
2014-Dec-10 11:34N 52°36' W 005°57'103 5.4
2014-Dec-09 16:16N 53°34' W 003°35'6 7.9
2014-Dec-09 15:27N 53°33' W 003°25'7 7.8
2014-Dec-09 14:34N 53°31' W 003°13'9 8.8
2014-Dec-09 13:33N 53°26' W 003°01'5 4.7
2014-Dec-09 12:31N 53°21' W 002°59'0 0.0
2014-Dec-09 11:25N 53°21' W 002°59'0 0.0
2014-Dec-09 10:31N 53°21' W 002°59'0 0.0
2014-Dec-09 09:31N 53°21' W 002°59'0 0.0
2014-Dec-09 08:30N 53°21' W 002°59'0 0.0
2014-Dec-09 07:30N 53°21' W 002°59'0 0.0
2014-Dec-09 06:30N 53°21' W 002°59'0 0.0
2014-Dec-09 05:31N 53°21' W 002°59'0 0.0
2014-Dec-09 04:31N 53°21' W 002°59'0 0.0
2014-Dec-09 03:31N 53°21' W 002°59'0 0.0
2014-Dec-09 02:31N 53°21' W 002°59'0 0.0
2014-Dec-09 01:31N 53°21' W 002°59'0 0.0
2014-Dec-09 00:31N 53°21' W 002°59'0 0.0
2014-Dec-08 23:31N 53°21' W 002°59'0 0.0
2014-Dec-08 22:31N 53°21' W 002°59'0 0.0
2014-Dec-08 21:31N 53°21' W 002°59'0 0.0
2014-Dec-08 20:30N 53°21' W 002°59'0 0.0
2014-Dec-08 19:30N 53°21' W 002°59'0 0.0
2014-Dec-08 18:30N 53°21' W 002°59'0 0.0
2014-Dec-08 17:30N 53°21' W 002°59'0 0.0
2014-Dec-08 16:30N 53°21' W 002°59'0 0.0
2014-Dec-08 15:29N 53°21' W 002°59'0 0.0
2014-Dec-08 14:29N 53°21' W 002°59'0 0.0
2014-Dec-08 13:29N 53°21' W 002°59'0 0.0
2014-Dec-08 12:29N 53°21' W 002°59'0 0.0
2014-Dec-08 11:29N 53°21' W 002°59'0 0.0
2014-Dec-08 10:29N 53°21' W 002°59'0 0.0
2014-Dec-08 09:29N 53°21' W 002°59'0 0.0
2014-Dec-08 08:29N 53°21' W 002°59'0 0.0
2014-Dec-08 07:29N 53°21' W 002°59'0 0.0
2014-Dec-08 06:23N 53°21' W 002°59'0 0.0
2014-Dec-08 05:29N 53°21' W 002°59'0 0.0
2014-Dec-08 04:29N 53°21' W 002°59'0 0.0
2014-Dec-08 03:29N 53°21' W 002°59'0 0.0
2014-Dec-08 02:29N 53°21' W 002°59'0 0.0
2014-Dec-08 01:29N 53°21' W 002°59'0 0.0
2014-Dec-08 00:29N 53°21' W 002°59'0 0.0
2014-Dec-07 23:29N 53°21' W 002°59'0 0.0
2014-Dec-07 22:29N 53°21' W 002°59'0 0.0
2014-Dec-07 21:29N 53°21' W 002°59'0 0.0
2014-Dec-07 20:29N 53°21' W 002°59'0 0.0
2014-Dec-07 19:29N 53°21' W 002°59'0 0.0
2014-Dec-07 18:29N 53°21' W 002°59'0 0.0
2014-Dec-07 17:29N 53°21' W 002°59'0 0.0
2014-Dec-07 16:29N 53°21' W 002°59'0 0.0
2014-Dec-07 15:31N 53°21' W 002°59'0 0.0
2014-Dec-07 14:31N 53°21' W 002°59'0 0.0
2014-Dec-07 13:31N 53°21' W 002°59'0 0.0
2014-Dec-07 12:31N 53°21' W 002°59'0 0.0
2014-Dec-07 11:30N 53°21' W 002°59'0 0.0
2014-Dec-07 10:31N 53°21' W 002°59'0 0.0
2014-Dec-07 09:30N 53°21' W 002°59'0 0.0
2014-Dec-07 08:31N 53°21' W 002°59'0 0.0
2014-Dec-07 07:27N 53°21' W 002°59'0 0.0
2014-Dec-07 06:33N 53°21' W 002°59'0 0.0
2014-Dec-07 05:33N 53°21' W 002°59'0 0.0
2014-Dec-07 04:33N 53°21' W 002°59'0 0.0
2014-Dec-07 03:33N 53°21' W 002°59'0 0.0
2014-Dec-07 02:27N 53°21' W 002°59'0 0.0
2014-Dec-07 01:21N 53°21' W 002°59'0 0.0
2014-Dec-07 00:27N 53°21' W 002°59'0 0.0
2014-Dec-06 23:27N 53°21' W 002°59'0 0.0
2014-Dec-06 22:33N 53°21' W 002°59'0 0.0
2014-Dec-06 21:33N 53°21' W 002°59'0 0.0
2014-Dec-06 20:33N 53°21' W 002°59'0 0.0
2014-Dec-06 19:33N 53°21' W 002°59'0 0.0
2014-Dec-06 18:33N 53°21' W 002°59'0 0.0
2014-Dec-06 17:33N 53°21' W 002°59'0 0.0
2014-Dec-06 16:33N 53°21' W 002°59'0 0.0
2014-Dec-06 15:33N 53°21' W 002°59'0 0.0
2014-Dec-06 14:28N 53°21' W 002°59'0 0.0
2014-Dec-06 13:28N 53°21' W 002°59'0 0.0
2014-Dec-06 12:28N 53°21' W 002°59'0 0.0
2014-Dec-06 11:28N 53°21' W 002°59'0 0.0
2014-Dec-06 10:28N 53°21' W 002°59'0 0.0
2014-Dec-06 09:28N 53°21' W 002°59'0 0.0
2014-Dec-06 08:22N 53°21' W 002°59'0 0.0
2014-Dec-06 07:27N 53°21' W 002°59'0 0.0
2014-Dec-06 06:33N 53°21' W 002°59'0 0.0
2014-Dec-06 05:33N 53°21' W 002°59'0 0.0
2014-Dec-06 04:33N 53°21' W 002°59'0 0.0
2014-Dec-06 03:33N 53°21' W 002°59'0 0.0
2014-Dec-06 02:33N 53°21' W 002°59'0 0.0
2014-Dec-06 01:33N 53°21' W 002°59'0 0.0
2014-Dec-06 00:33N 53°21' W 002°59'  
Track history (hours):
 
Tides and Currents Weather Stations Pressure Air Temp Water Temp Dewpoint Dewpoint Depression Visibility Wind Speed Wind Dir Waves Ship Positions

Wotan

Last reported at 2014-Dec-16 00:07 UTC. Time now 2014-Dec-18 09:34 UTC.
Position N 38°29' W 010°03'.

Length 100 m; draft 5.9 m.

Type: Cargo ship. MMSI: 304195000.

Date/timePositionNaut miles runAvg speedWind from/ knotsBaromVisibWave heightAir tempDewpointWater temp
2014-Dec-16 00:07N 38°29' W 010°03'5 8.6
2014-Dec-15 23:33N 38°34' W 010°05'8 8.3
2014-Dec-15 22:32N 38°42' W 010°08'20 8.3
2014-Dec-15 20:10N 39°01' W 010°07'  
2014-Dec-11 14:21N 51°54' W 006°19'5 6.6
2014-Dec-11 13:33N 51°59' W 006°17'6 6.3
2014-Dec-11 12:33N 52°05' W 006°14'5 5.3
2014-Dec-11 11:33N 52°09' W 006°10'6 5.8
2014-Dec-11 10:33N 52°15' W 006°07'6 5.7
2014-Dec-11 09:33N 52°20' W 006°06'7 6.6
2014-Dec-11 08:33N 52°27' W 006°06'7 6.7
2014-Dec-11 07:31N 52°34' W 006°07'0 0.1
2014-Dec-11 06:28N 52°34' W 006°07'0 0.1
2014-Dec-11 05:31N 52°34' W 006°07'0 0.0
2014-Dec-11 04:31N 52°34' W 006°07'0 0.0
2014-Dec-11 03:31N 52°34' W 006°07'0 0.1
2014-Dec-11 02:28N 52°34' W 006°07'0 0.1
2014-Dec-11 01:31N 52°34' W 006°07'0 0.1
2014-Dec-11 00:07N 52°34' W 006°07'0 0.0
2014-Dec-10 23:31N 52°34' W 006°07'0 0.0
2014-Dec-10 22:25N 52°34' W 006°07'0 0.1
2014-Dec-10 21:31N 52°34' W 006°07'0 0.2
2014-Dec-10 20:22N 52°34' W 006°07'0 0.1
2014-Dec-10 19:31N 52°34' W 006°06'0 0.1
2014-Dec-10 18:28N 52°34' W 006°07'0 0.1
2014-Dec-10 17:22N 52°34' W 006°07'0 0.0
2014-Dec-10 16:22N 52°34' W 006°07'0 0.1
2014-Dec-10 15:31N 52°34' W 006°07'0 0.1
2014-Dec-10 14:22N 52°34' W 006°07'0 0.2
2014-Dec-10 13:31N 52°34' W 006°06'0 0.1
2014-Dec-10 12:31N 52°34' W 006°06'6 6.2
2014-Dec-10 11:34N 52°36' W 005°57'103 5.4
2014-Dec-09 16:16N 53°34' W 003°35'6 7.9
2014-Dec-09 15:27N 53°33' W 003°25'7 7.8
2014-Dec-09 14:34N 53°31' W 003°13'9 8.8
2014-Dec-09 13:33N 53°26' W 003°01'5 4.7
2014-Dec-09 12:31N 53°21' W 002°59'0 0.0
2014-Dec-09 11:25N 53°21' W 002°59'0 0.0
2014-Dec-09 10:31N 53°21' W 002°59'0 0.0
2014-Dec-09 09:31N 53°21' W 002°59'0 0.0
2014-Dec-09 08:30N 53°21' W 002°59'0 0.0
2014-Dec-09 07:30N 53°21' W 002°59'0 0.0
2014-Dec-09 06:30N 53°21' W 002°59'0 0.0
2014-Dec-09 05:31N 53°21' W 002°59'0 0.0
2014-Dec-09 04:31N 53°21' W 002°59'0 0.0
2014-Dec-09 03:31N 53°21' W 002°59'0 0.0
2014-Dec-09 02:31N 53°21' W 002°59'0 0.0
2014-Dec-09 01:31N 53°21' W 002°59'0 0.0
2014-Dec-09 00:31N 53°21' W 002°59'0 0.0
2014-Dec-08 23:31N 53°21' W 002°59'0 0.0
2014-Dec-08 22:31N 53°21' W 002°59'0 0.0
2014-Dec-08 21:31N 53°21' W 002°59'0 0.0
2014-Dec-08 20:30N 53°21' W 002°59'0 0.0
2014-Dec-08 19:30N 53°21' W 002°59'0 0.0
2014-Dec-08 18:30N 53°21' W 002°59'0 0.0
2014-Dec-08 17:30N 53°21' W 002°59'0 0.0
2014-Dec-08 16:30N 53°21' W 002°59'0 0.0
2014-Dec-08 15:29N 53°21' W 002°59'0 0.0
2014-Dec-08 14:29N 53°21' W 002°59'0 0.0
2014-Dec-08 13:29N 53°21' W 002°59'0 0.0
2014-Dec-08 12:29N 53°21' W 002°59'0 0.0
2014-Dec-08 11:29N 53°21' W 002°59'0 0.0
2014-Dec-08 10:29N 53°21' W 002°59'0 0.0
2014-Dec-08 09:29N 53°21' W 002°59'0 0.0
2014-Dec-08 08:29N 53°21' W 002°59'0 0.0
2014-Dec-08 07:29N 53°21' W 002°59'0 0.0
2014-Dec-08 06:23N 53°21' W 002°59'0 0.0
2014-Dec-08 05:29N 53°21' W 002°59'0 0.0
2014-Dec-08 04:29N 53°21' W 002°59'0 0.0
2014-Dec-08 03:29N 53°21' W 002°59'0 0.0
2014-Dec-08 02:29N 53°21' W 002°59'0 0.0
2014-Dec-08 01:29N 53°21' W 002°59'0 0.0
2014-Dec-08 00:29N 53°21' W 002°59'0 0.0
2014-Dec-07 23:29N 53°21' W 002°59'0 0.0
2014-Dec-07 22:29N 53°21' W 002°59'0 0.0
2014-Dec-07 21:29N 53°21' W 002°59'0 0.0
2014-Dec-07 20:29N 53°21' W 002°59'0 0.0
2014-Dec-07 19:29N 53°21' W 002°59'0 0.0
2014-Dec-07 18:29N 53°21' W 002°59'0 0.0
2014-Dec-07 17:29N 53°21' W 002°59'0 0.0
2014-Dec-07 16:29N 53°21' W 002°59'0 0.0
2014-Dec-07 15:31N 53°21' W 002°59'0 0.0
2014-Dec-07 14:31N 53°21' W 002°59'0 0.0
2014-Dec-07 13:31N 53°21' W 002°59'0 0.0
2014-Dec-07 12:31N 53°21' W 002°59'0 0.0
2014-Dec-07 11:30N 53°21' W 002°59'0 0.0
2014-Dec-07 10:31N 53°21' W 002°59'0 0.0
2014-Dec-07 09:30N 53°21' W 002°59'0 0.0
2014-Dec-07 08:31N 53°21' W 002°59'0 0.0
2014-Dec-07 07:27N 53°21' W 002°59'0 0.0
2014-Dec-07 06:33N 53°21' W 002°59'0 0.0
2014-Dec-07 05:33N 53°21' W 002°59'0 0.0
2014-Dec-07 04:33N 53°21' W 002°59'0 0.0
2014-Dec-07 03:33N 53°21' W 002°59'0 0.0
2014-Dec-07 02:27N 53°21' W 002°59'0 0.0
2014-Dec-07 01:21N 53°21' W 002°59'0 0.0
2014-Dec-07 00:27N 53°21' W 002°59'0 0.0
2014-Dec-06 23:27N 53°21' W 002°59'0 0.0
2014-Dec-06 22:33N 53°21' W 002°59'0 0.0
2014-Dec-06 21:33N 53°21' W 002°59'0 0.0
2014-Dec-06 20:33N 53°21' W 002°59'0 0.0
2014-Dec-06 19:33N 53°21' W 002°59'0 0.0
2014-Dec-06 18:33N 53°21' W 002°59'0 0.0
2014-Dec-06 17:33N 53°21' W 002°59'0 0.0
2014-Dec-06 16:33N 53°21' W 002°59'0 0.0
2014-Dec-06 15:33N 53°21' W 002°59'0 0.0
2014-Dec-06 14:28N 53°21' W 002°59'0 0.0
2014-Dec-06 13:28N 53°21' W 002°59'0 0.0
2014-Dec-06 12:28N 53°21' W 002°59'0 0.0
2014-Dec-06 11:28N 53°21' W 002°59'0 0.0
2014-Dec-06 10:28N 53°21' W 002°59'0 0.0
2014-Dec-06 09:28N 53°21' W 002°59'0 0.0
2014-Dec-06 08:22N 53°21' W 002°59'0 0.0
2014-Dec-06 07:27N 53°21' W 002°59'0 0.0
2014-Dec-06 06:33N 53°21' W 002°59'0 0.0
2014-Dec-06 05:33N 53°21' W 002°59'0 0.0
2014-Dec-06 04:33N 53°21' W 002°59'0 0.0
2014-Dec-06 03:33N 53°21' W 002°59'0 0.0
2014-Dec-06 02:33N 53°21' W 002°59'0 0.0
2014-Dec-06 01:33N 53°21' W 002°59'0 0.0
2014-Dec-06 00:33N 53°21' W 002°59'  

Dump ship's entire track history